Aztec, New Mexico
Current Conditions -  °F | °C
As of 8:53 AM on Thursday 23 Oct 2014 (Local Time) from KFMN Reporting Station
Clear Clear  
Wind Chill: 41°   Ceiling: Unl
Heat Index: 46°   Visibility: 10mi
Dew Point: 37°   Wind: 9mph
Humidity: 71%   Direction: 110°ESE
Pressure: 30.29"   Gusts: NA
Location:  36.83°N, 107.99°W
Report Text: KFMN 231453Z 11008KT 10SM CLR 08/03 A3029 RMK AO2 SLP236 T00780028 53009
Loading
Personal Weather Stations






























Interactive Weather Map New forecast layout! Learn more

10-Day Weather Forecast

Advertisements
Track Severe Weather on mobile